Startpagina
METAR-TAF:

METAR-TAF

Vliegvelden :

Bloemfontein, Zuid-Afrika

breedte: 29-06S, lengte: 026-18E, hoogte: 1354 m

Actueel weer

Dit bericht is 59 minuten geleden gemaakt, om 20:00 UTC
Wind 2 kt uit variabele richting
Temperatuur 17°C
Vochtigheid 68%
Druk 1017 hPa
Zicht 10 km of meer

METAR: FABL 112000Z AUTO VRB02KT 9999 ///////// 17/11 Q1017

Tijdstip: 22:59 (20:59 UTC)

Verwachting

Dit bericht is 4 uur en het 59 minuten geleden gemaakt, om 16:00 UTC
Verwachting geldig van 11 om 18 UTC tot 12 om 18 UTC
Wind 3 kt uit variabele richting
Zicht 10 km of meer
geen wolken onder 1500 m en geen cumulonimbus
Kans 30% :
Tijdelijke
van 12 om 16 UTC tot 12 om 18 UTC
Weinig wolken op 7000 ft, Cumulonimbus.
onweer
Wijzigt naar
van 12 om 16 UTC tot 12 om 18 UTC
Wind 15 kt uit het oosten

TAF: FABL 111600Z 1118/1218 VRB03KT CAVOK TX27/1213Z TN15/1203Z PROB30 TEMPO 1216/1218 TS FEW070CB BECMG 1216/1218 09015KT

Waarnemingen en weersverwachtingen van meer dan 4000 vliegvelden (METAR en TAF).

De beschikbare stations zijn de gele en rode punten op de kaart.

Ga met uw muis naar het station om de naam te zien.

Klik dan om waarnemingen en weersverwachtingen te zien.

kaart wijzigen: klik op de groene knoppen met een zwart kruis om in te zoomen, op de groene knop met een streepje om uit te zoomen of op de groene pijlen voor aangrenzende kaarten.


METAR-TAF: